sensor_id;sensor_type;location;lat;lon;timestamp;temperature;humidity
53422;DHT22;39319;52.944;5.928;2023-03-19T00:00:08;13.30;99.40
53422;DHT22;39319;52.944;5.928;2023-03-19T00:02:34;13.20;99.40
53422;DHT22;39319;52.944;5.928;2023-03-19T00:05:01;13.20;99.40
53422;DHT22;39319;52.944;5.928;2023-03-19T00:07:30;13.20;99.50
53422;DHT22;39319;52.944;5.928;2023-03-19T00:09:56;13.30;99.50
53422;DHT22;39319;52.944;5.928;2023-03-19T00:12:22;13.10;99.20
53422;DHT22;39319;52.944;5.928;2023-03-19T00:14:48;13.20;99.40
53422;DHT22;39319;52.944;5.928;2023-03-19T00:17:13;13.10;99.40
53422;DHT22;39319;52.944;5.928;2023-03-19T00:19:39;13.20;99.30
53422;DHT22;39319;52.944;5.928;2023-03-19T00:22:05;13.10;99.20
53422;DHT22;39319;52.944;5.928;2023-03-19T00:24:31;13.20;99.50
53422;DHT22;39319;52.944;5.928;2023-03-19T00:26:57;13.10;99.50
53422;DHT22;39319;52.944;5.928;2023-03-19T00:29:23;13.30;99.60
53422;DHT22;39319;52.944;5.928;2023-03-19T00:31:49;13.20;99.50
53422;DHT22;39319;52.944;5.928;2023-03-19T00:34:16;13.20;99.50
53422;DHT22;39319;52.944;5.928;2023-03-19T00:36:45;13.20;99.40
53422;DHT22;39319;52.944;5.928;2023-03-19T00:39:11;13.10;99.60
53422;DHT22;39319;52.944;5.928;2023-03-19T00:41:37;13.00;99.60
53422;DHT22;39319;52.944;5.928;2023-03-19T00:44:03;13.20;99.70
53422;DHT22;39319;52.944;5.928;2023-03-19T00:46:30;13.20;99.80
53422;DHT22;39319;52.944;5.928;2023-03-19T00:48:56;13.10;99.80
53422;DHT22;39319;52.944;5.928;2023-03-19T00:51:23;13.00;99.70
53422;DHT22;39319;52.944;5.928;2023-03-19T00:53:50;13.10;99.80
53422;DHT22;39319;52.944;5.928;2023-03-19T00:56:16;13.20;99.90
53422;DHT22;39319;52.944;5.928;2023-03-19T00:58:43;13.10;99.50
53422;DHT22;39319;52.944;5.928;2023-03-19T01:01:11;13.10;99.60
53422;DHT22;39319;52.944;5.928;2023-03-19T01:03:37;13.00;99.60
53422;DHT22;39319;52.944;5.928;2023-03-19T01:06:04;13.10;99.60
53422;DHT22;39319;52.944;5.928;2023-03-19T01:08:29;13.00;99.70
53422;DHT22;39319;52.944;5.928;2023-03-19T01:10:55;13.00;99.70
53422;DHT22;39319;52.944;5.928;2023-03-19T01:13:21;13.10;99.90
53422;DHT22;39319;52.944;5.928;2023-03-19T01:15:51;13.10;99.80
53422;DHT22;39319;52.944;5.928;2023-03-19T01:18:17;13.20;99.90
53422;DHT22;39319;52.944;5.928;2023-03-19T01:20:43;13.00;99.90
53422;DHT22;39319;52.944;5.928;2023-03-19T01:23:09;13.00;99.90
53422;DHT22;39319;52.944;5.928;2023-03-19T01:25:35;13.20;99.90
53422;DHT22;39319;52.944;5.928;2023-03-19T01:28:00;13.10;99.90
53422;DHT22;39319;52.944;5.928;2023-03-19T01:30:26;13.10;99.90
53422;DHT22;39319;52.944;5.928;2023-03-19T01:32:55;13.00;99.90
53422;DHT22;39319;52.944;5.928;2023-03-19T01:35:20;13.00;99.90
53422;DHT22;39319;52.944;5.928;2023-03-19T01:37:46;13.10;99.90
53422;DHT22;39319;52.944;5.928;2023-03-19T01:40:13;13.10;99.90
53422;DHT22;39319;52.944;5.928;2023-03-19T01:42:56;13.00;99.90
53422;DHT22;39319;52.944;5.928;2023-03-19T01:45:32;13.10;99.90
53422;DHT22;39319;52.944;5.928;2023-03-19T01:47:59;13.10;99.90
53422;DHT22;39319;52.944;5.928;2023-03-19T01:50:46;13.10;99.90
53422;DHT22;39319;52.944;5.928;2023-03-19T01:53:17;13.20;99.90
53422;DHT22;39319;52.944;5.928;2023-03-19T01:55:45;13.10;99.90
53422;DHT22;39319;52.944;5.928;2023-03-19T01:58:11;13.10;99.90
53422;DHT22;39319;52.944;5.928;2023-03-19T02:00:39;13.10;99.90
53422;DHT22;39319;52.944;5.928;2023-03-19T02:03:06;13.10;99.90
53422;DHT22;39319;52.944;5.928;2023-03-19T02:05:33;13.10;99.90
53422;DHT22;39319;52.944;5.928;2023-03-19T02:08:03;13.00;99.90
53422;DHT22;39319;52.944;5.928;2023-03-19T02:10:32;13.00;99.90
53422;DHT22;39319;52.944;5.928;2023-03-19T02:12:59;13.10;99.90
53422;DHT22;39319;52.944;5.928;2023-03-19T02:15:24;13.00;99.90
53422;DHT22;39319;52.944;5.928;2023-03-19T02:17:50;12.90;99.90
53422;DHT22;39319;52.944;5.928;2023-03-19T02:23:03;12.90;99.90
53422;DHT22;39319;52.944;5.928;2023-03-19T02:28:14;13.00;99.90
53422;DHT22;39319;52.944;5.928;2023-03-19T02:30:42;13.00;99.90
53422;DHT22;39319;52.944;5.928;2023-03-19T02:33:13;12.90;99.90
53422;DHT22;39319;52.944;5.928;2023-03-19T02:35:44;12.90;99.90
53422;DHT22;39319;52.944;5.928;2023-03-19T02:38:12;13.00;99.90
53422;DHT22;39319;52.944;5.928;2023-03-19T02:41:01;13.10;99.90
53422;DHT22;39319;52.944;5.928;2023-03-19T02:43:33;13.10;99.90
53422;DHT22;39319;52.944;5.928;2023-03-19T02:46:00;13.10;99.90
53422;DHT22;39319;52.944;5.928;2023-03-19T02:48:26;13.00;99.90
53422;DHT22;39319;52.944;5.928;2023-03-19T02:50:52;13.10;99.90
53422;DHT22;39319;52.944;5.928;2023-03-19T02:53:18;13.00;99.90
53422;DHT22;39319;52.944;5.928;2023-03-19T02:55:44;12.90;99.90
53422;DHT22;39319;52.944;5.928;2023-03-19T02:58:10;12.90;99.90
53422;DHT22;39319;52.944;5.928;2023-03-19T03:00:36;13.00;99.90
53422;DHT22;39319;52.944;5.928;2023-03-19T03:03:04;13.10;99.90
53422;DHT22;39319;52.944;5.928;2023-03-19T03:05:31;13.00;99.90
53422;DHT22;39319;52.944;5.928;2023-03-19T03:07:57;13.00;99.90
53422;DHT22;39319;52.944;5.928;2023-03-19T03:10:23;13.00;99.90
53422;DHT22;39319;52.944;5.928;2023-03-19T03:12:49;12.80;99.90
53422;DHT22;39319;52.944;5.928;2023-03-19T03:15:16;13.00;99.90
53422;DHT22;39319;52.944;5.928;2023-03-19T03:17:43;13.00;99.90
53422;DHT22;39319;52.944;5.928;2023-03-19T03:20:10;13.00;99.90
53422;DHT22;39319;52.944;5.928;2023-03-19T03:22:37;12.90;99.90
53422;DHT22;39319;52.944;5.928;2023-03-19T03:25:04;13.00;99.90
53422;DHT22;39319;52.944;5.928;2023-03-19T03:27:30;13.00;99.90
53422;DHT22;39319;52.944;5.928;2023-03-19T03:29:57;12.90;99.90
53422;DHT22;39319;52.944;5.928;2023-03-19T03:32:23;12.90;99.90
53422;DHT22;39319;52.944;5.928;2023-03-19T03:34:48;12.80;99.90
53422;DHT22;39319;52.944;5.928;2023-03-19T03:37:15;12.90;99.90
53422;DHT22;39319;52.944;5.928;2023-03-19T03:39:41;12.90;99.90
53422;DHT22;39319;52.944;5.928;2023-03-19T03:42:08;13.20;99.90
53422;DHT22;39319;52.944;5.928;2023-03-19T03:44:34;12.90;99.90
53422;DHT22;39319;52.944;5.928;2023-03-19T03:47:00;12.80;99.90
53422;DHT22;39319;52.944;5.928;2023-03-19T03:49:27;12.80;99.90
53422;DHT22;39319;52.944;5.928;2023-03-19T03:51:52;12.80;99.90
53422;DHT22;39319;52.944;5.928;2023-03-19T03:54:18;12.80;99.90
53422;DHT22;39319;52.944;5.928;2023-03-19T03:56:44;12.80;99.90
53422;DHT22;39319;52.944;5.928;2023-03-19T03:59:09;12.90;99.90
53422;DHT22;39319;52.944;5.928;2023-03-19T04:01:35;12.80;99.90
53422;DHT22;39319;52.944;5.928;2023-03-19T04:04:01;12.90;99.90
53422;DHT22;39319;52.944;5.928;2023-03-19T04:06:27;12.90;99.90
53422;DHT22;39319;52.944;5.928;2023-03-19T04:08:53;12.80;99.90
53422;DHT22;39319;52.944;5.928;2023-03-19T04:11:19;12.80;99.90
53422;DHT22;39319;52.944;5.928;2023-03-19T04:13:45;12.70;99.90
53422;DHT22;39319;52.944;5.928;2023-03-19T04:16:11;12.80;99.90
53422;DHT22;39319;52.944;5.928;2023-03-19T04:18:38;12.80;99.90
53422;DHT22;39319;52.944;5.928;2023-03-19T04:21:05;12.60;99.90
53422;DHT22;39319;52.944;5.928;2023-03-19T04:23:31;12.70;99.90
53422;DHT22;39319;52.944;5.928;2023-03-19T04:25:58;12.70;99.90
53422;DHT22;39319;52.944;5.928;2023-03-19T04:28:25;12.70;99.90
53422;DHT22;39319;52.944;5.928;2023-03-19T04:30:50;12.80;99.90
53422;DHT22;39319;52.944;5.928;2023-03-19T04:33:16;12.80;99.90
53422;DHT22;39319;52.944;5.928;2023-03-19T04:35:42;12.80;99.90
53422;DHT22;39319;52.944;5.928;2023-03-19T04:38:08;12.80;99.90
53422;DHT22;39319;52.944;5.928;2023-03-19T04:40:34;12.60;99.90
53422;DHT22;39319;52.944;5.928;2023-03-19T04:43:00;12.60;99.90
53422;DHT22;39319;52.944;5.928;2023-03-19T04:45:27;12.70;99.90
53422;DHT22;39319;52.944;5.928;2023-03-19T04:47:52;12.70;99.90
53422;DHT22;39319;52.944;5.928;2023-03-19T04:50:20;12.70;99.90
53422;DHT22;39319;52.944;5.928;2023-03-19T04:52:46;12.60;99.90
53422;DHT22;39319;52.944;5.928;2023-03-19T04:55:12;12.70;99.90
53422;DHT22;39319;52.944;5.928;2023-03-19T04:57:38;12.60;99.90
53422;DHT22;39319;52.944;5.928;2023-03-19T05:00:06;12.60;99.90
53422;DHT22;39319;52.944;5.928;2023-03-19T05:02:32;12.60;99.90
53422;DHT22;39319;52.944;5.928;2023-03-19T05:04:57;12.50;99.90
53422;DHT22;39319;52.944;5.928;2023-03-19T05:07:23;12.60;99.90
53422;DHT22;39319;52.944;5.928;2023-03-19T05:09:49;12.40;99.90
53422;DHT22;39319;52.944;5.928;2023-03-19T05:12:15;12.50;99.90
53422;DHT22;39319;52.944;5.928;2023-03-19T05:14:40;12.50;99.90
53422;DHT22;39319;52.944;5.928;2023-03-19T05:17:06;12.40;99.90
53422;DHT22;39319;52.944;5.928;2023-03-19T05:19:32;12.30;99.90
53422;DHT22;39319;52.944;5.928;2023-03-19T05:21:58;12.20;99.90
53422;DHT22;39319;52.944;5.928;2023-03-19T05:24:24;12.10;99.90
53422;DHT22;39319;52.944;5.928;2023-03-19T05:26:50;12.10;99.90
53422;DHT22;39319;52.944;5.928;2023-03-19T05:29:15;12.10;99.90
53422;DHT22;39319;52.944;5.928;2023-03-19T05:31:41;12.00;99.90
53422;DHT22;39319;52.944;5.928;2023-03-19T05:34:07;12.00;99.90
53422;DHT22;39319;52.944;5.928;2023-03-19T05:36:33;12.10;99.90
53422;DHT22;39319;52.944;5.928;2023-03-19T05:38:59;12.00;99.90
53422;DHT22;39319;52.944;5.928;2023-03-19T05:41:25;12.00;99.90
53422;DHT22;39319;52.944;5.928;2023-03-19T05:43:51;11.80;99.90
53422;DHT22;39319;52.944;5.928;2023-03-19T05:46:17;11.80;99.90
53422;DHT22;39319;52.944;5.928;2023-03-19T05:48:42;11.80;99.90
53422;DHT22;39319;52.944;5.928;2023-03-19T05:51:08;12.10;99.90
53422;DHT22;39319;52.944;5.928;2023-03-19T05:53:34;11.70;99.90
53422;DHT22;39319;52.944;5.928;2023-03-19T05:56:00;11.60;99.90
53422;DHT22;39319;52.944;5.928;2023-03-19T05:58:25;11.60;99.90
53422;DHT22;39319;52.944;5.928;2023-03-19T06:00:54;11.70;99.90
53422;DHT22;39319;52.944;5.928;2023-03-19T06:03:21;11.50;99.90
53422;DHT22;39319;52.944;5.928;2023-03-19T06:05:52;11.70;99.90
53422;DHT22;39319;52.944;5.928;2023-03-19T06:08:18;11.60;99.90
53422;DHT22;39319;52.944;5.928;2023-03-19T06:10:46;11.60;99.90
53422;DHT22;39319;52.944;5.928;2023-03-19T06:13:12;11.70;99.90
53422;DHT22;39319;52.944;5.928;2023-03-19T06:15:38;11.50;99.90
53422;DHT22;39319;52.944;5.928;2023-03-19T06:18:04;11.60;99.90
53422;DHT22;39319;52.944;5.928;2023-03-19T06:20:29;11.50;99.90
53422;DHT22;39319;52.944;5.928;2023-03-19T06:22:55;11.40;99.90
53422;DHT22;39319;52.944;5.928;2023-03-19T06:25:21;11.50;99.90
53422;DHT22;39319;52.944;5.928;2023-03-19T06:27:47;11.50;99.90
53422;DHT22;39319;52.944;5.928;2023-03-19T06:30:13;11.60;99.90
53422;DHT22;39319;52.944;5.928;2023-03-19T06:32:38;11.70;99.90
53422;DHT22;39319;52.944;5.928;2023-03-19T06:35:05;11.50;99.90
53422;DHT22;39319;52.944;5.928;2023-03-19T06:37:33;11.60;99.90
53422;DHT22;39319;52.944;5.928;2023-03-19T06:39:59;11.50;99.90
53422;DHT22;39319;52.944;5.928;2023-03-19T06:42:25;11.70;99.90
53422;DHT22;39319;52.944;5.928;2023-03-19T06:44:53;11.50;99.90
53422;DHT22;39319;52.944;5.928;2023-03-19T06:47:19;11.50;99.90
53422;DHT22;39319;52.944;5.928;2023-03-19T06:49:45;11.70;99.90
53422;DHT22;39319;52.944;5.928;2023-03-19T06:52:14;11.60;99.90
53422;DHT22;39319;52.944;5.928;2023-03-19T06:54:40;11.50;99.90
53422;DHT22;39319;52.944;5.928;2023-03-19T06:57:05;11.70;99.90
53422;DHT22;39319;52.944;5.928;2023-03-19T06:59:31;11.70;99.90
53422;DHT22;39319;52.944;5.928;2023-03-19T07:01:57;11.60;99.90
53422;DHT22;39319;52.944;5.928;2023-03-19T07:04:25;11.70;99.90
53422;DHT22;39319;52.944;5.928;2023-03-19T07:06:51;10.90;99.90
53422;DHT22;39319;52.944;5.928;2023-03-19T07:09:16;11.80;99.90
53422;DHT22;39319;52.944;5.928;2023-03-19T07:11:42;10.60;99.90
53422;DHT22;39319;52.944;5.928;2023-03-19T07:14:08;11.80;99.90
53422;DHT22;39319;52.944;5.928;2023-03-19T07:16:35;11.90;99.90
53422;DHT22;39319;52.944;5.928;2023-03-19T07:19:00;11.90;99.90
53422;DHT22;39319;52.944;5.928;2023-03-19T07:21:26;11.90;99.90
53422;DHT22;39319;52.944;5.928;2023-03-19T07:23:52;12.00;99.90
53422;DHT22;39319;52.944;5.928;2023-03-19T07:26:18;12.00;99.90
53422;DHT22;39319;52.944;5.928;2023-03-19T07:28:43;12.00;99.90
53422;DHT22;39319;52.944;5.928;2023-03-19T07:31:09;12.00;99.90
53422;DHT22;39319;52.944;5.928;2023-03-19T07:33:35;12.10;99.90
53422;DHT22;39319;52.944;5.928;2023-03-19T07:36:01;12.00;99.90
53422;DHT22;39319;52.944;5.928;2023-03-19T07:38:27;12.00;99.90
53422;DHT22;39319;52.944;5.928;2023-03-19T07:40:53;12.00;99.90
53422;DHT22;39319;52.944;5.928;2023-03-19T07:43:18;12.20;99.90
53422;DHT22;39319;52.944;5.928;2023-03-19T07:45:44;12.10;99.90
53422;DHT22;39319;52.944;5.928;2023-03-19T07:48:10;12.10;99.90
53422;DHT22;39319;52.944;5.928;2023-03-19T07:50:37;12.00;99.90
53422;DHT22;39319;52.944;5.928;2023-03-19T07:53:03;12.30;99.90
53422;DHT22;39319;52.944;5.928;2023-03-19T07:55:28;12.10;99.90
53422;DHT22;39319;52.944;5.928;2023-03-19T07:57:56;12.00;99.90
53422;DHT22;39319;52.944;5.928;2023-03-19T08:00:22;12.10;99.90
53422;DHT22;39319;52.944;5.928;2023-03-19T08:02:48;12.00;99.90
53422;DHT22;39319;52.944;5.928;2023-03-19T08:05:14;12.10;99.90
53422;DHT22;39319;52.944;5.928;2023-03-19T08:07:40;12.10;99.90
53422;DHT22;39319;52.944;5.928;2023-03-19T08:10:06;12.00;99.90
53422;DHT22;39319;52.944;5.928;2023-03-19T08:12:33;12.10;99.90
53422;DHT22;39319;52.944;5.928;2023-03-19T08:15:06;12.00;99.90
53422;DHT22;39319;52.944;5.928;2023-03-19T08:17:32;12.20;99.90
53422;DHT22;39319;52.944;5.928;2023-03-19T08:20:14;12.20;99.90
53422;DHT22;39319;52.944;5.928;2023-03-19T08:22:41;12.20;99.90
53422;DHT22;39319;52.944;5.928;2023-03-19T08:25:08;12.20;99.90
53422;DHT22;39319;52.944;5.928;2023-03-19T08:27:34;12.20;99.90
53422;DHT22;39319;52.944;5.928;2023-03-19T08:30:01;12.10;99.90
53422;DHT22;39319;52.944;5.928;2023-03-19T08:32:28;12.00;99.90
53422;DHT22;39319;52.944;5.928;2023-03-19T08:34:54;11.90;99.90
53422;DHT22;39319;52.944;5.928;2023-03-19T08:37:20;12.00;99.90
53422;DHT22;39319;52.944;5.928;2023-03-19T08:39:46;11.90;99.90
53422;DHT22;39319;52.944;5.928;2023-03-19T08:42:14;11.80;99.90
53422;DHT22;39319;52.944;5.928;2023-03-19T08:44:40;11.80;99.90
53422;DHT22;39319;52.944;5.928;2023-03-19T08:47:05;11.90;99.90
53422;DHT22;39319;52.944;5.928;2023-03-19T08:49:31;11.90;99.90
53422;DHT22;39319;52.944;5.928;2023-03-19T08:51:59;11.90;99.90
53422;DHT22;39319;52.944;5.928;2023-03-19T08:54:25;11.80;99.90
53422;DHT22;39319;52.944;5.928;2023-03-19T08:56:50;12.00;99.90
53422;DHT22;39319;52.944;5.928;2023-03-19T08:59:16;11.80;99.90
53422;DHT22;39319;52.944;5.928;2023-03-19T09:01:44;11.80;99.90
53422;DHT22;39319;52.944;5.928;2023-03-19T09:04:10;11.90;99.90
53422;DHT22;39319;52.944;5.928;2023-03-19T09:06:38;11.70;99.90
53422;DHT22;39319;52.944;5.928;2023-03-19T09:09:04;11.70;99.90
53422;DHT22;39319;52.944;5.928;2023-03-19T09:11:30;11.60;99.90
53422;DHT22;39319;52.944;5.928;2023-03-19T09:13:56;11.70;99.90
53422;DHT22;39319;52.944;5.928;2023-03-19T09:16:22;11.70;99.90
53422;DHT22;39319;52.944;5.928;2023-03-19T09:18:47;11.70;99.90
53422;DHT22;39319;52.944;5.928;2023-03-19T09:21:13;11.70;99.90
53422;DHT22;39319;52.944;5.928;2023-03-19T09:23:39;11.60;99.90
53422;DHT22;39319;52.944;5.928;2023-03-19T09:26:05;11.60;99.90
53422;DHT22;39319;52.944;5.928;2023-03-19T09:28:31;11.70;99.90
53422;DHT22;39319;52.944;5.928;2023-03-19T09:30:57;11.70;99.90
53422;DHT22;39319;52.944;5.928;2023-03-19T09:33:22;11.60;99.90
53422;DHT22;39319;52.944;5.928;2023-03-19T09:35:50;11.90;99.90
53422;DHT22;39319;52.944;5.928;2023-03-19T09:38:17;11.60;99.90
53422;DHT22;39319;52.944;5.928;2023-03-19T09:40:46;11.70;99.90
53422;DHT22;39319;52.944;5.928;2023-03-19T09:43:42;11.80;99.90
53422;DHT22;39319;52.944;5.928;2023-03-19T09:46:17;11.60;99.90
53422;DHT22;39319;52.944;5.928;2023-03-19T09:49:15;11.50;99.90
53422;DHT22;39319;52.944;5.928;2023-03-19T09:54:47;11.60;99.90
53422;DHT22;39319;52.944;5.928;2023-03-19T09:57:14;11.80;99.90
53422;DHT22;39319;52.944;5.928;2023-03-19T09:59:42;11.60;99.90
53422;DHT22;39319;52.944;5.928;2023-03-19T10:02:30;11.60;99.90
53422;DHT22;39319;52.944;5.928;2023-03-19T10:08:20;11.70;99.90
53422;DHT22;39319;52.944;5.928;2023-03-19T10:16:31;11.70;99.90
53422;DHT22;39319;52.944;5.928;2023-03-19T10:19:02;11.90;99.90
53422;DHT22;39319;52.944;5.928;2023-03-19T10:22:01;11.80;99.90
53422;DHT22;39319;52.944;5.928;2023-03-19T10:24:30;11.70;99.90
53422;DHT22;39319;52.944;5.928;2023-03-19T10:27:00;12.00;99.90
53422;DHT22;39319;52.944;5.928;2023-03-19T10:29:27;11.90;99.90
53422;DHT22;39319;52.944;5.928;2023-03-19T10:32:18;11.90;99.90
53422;DHT22;39319;52.944;5.928;2023-03-19T10:34:48;11.90;99.90
53422;DHT22;39319;52.944;5.928;2023-03-19T10:37:27;11.90;99.90
53422;DHT22;39319;52.944;5.928;2023-03-19T10:39:58;12.00;99.90
53422;DHT22;39319;52.944;5.928;2023-03-19T10:47:48;11.80;99.90
53422;DHT22;39319;52.944;5.928;2023-03-19T10:50:22;12.00;99.90
53422;DHT22;39319;52.944;5.928;2023-03-19T10:56:00;12.00;99.90
53422;DHT22;39319;52.944;5.928;2023-03-19T10:58:27;11.80;99.90
53422;DHT22;39319;52.944;5.928;2023-03-19T11:01:02;11.80;99.90
53422;DHT22;39319;52.944;5.928;2023-03-19T11:03:34;11.80;99.90
53422;DHT22;39319;52.944;5.928;2023-03-19T11:08:56;11.90;99.90
53422;DHT22;39319;52.944;5.928;2023-03-19T11:11:43;11.70;99.90
53422;DHT22;39319;52.944;5.928;2023-03-19T11:17:17;11.60;99.90
53422;DHT22;39319;52.944;5.928;2023-03-19T11:19:52;11.70;99.90
53422;DHT22;39319;52.944;5.928;2023-03-19T11:22:31;11.80;99.90
53422;DHT22;39319;52.944;5.928;2023-03-19T11:25:14;11.80;99.90
53422;DHT22;39319;52.944;5.928;2023-03-19T11:27:43;11.70;99.90
53422;DHT22;39319;52.944;5.928;2023-03-19T11:30:19;11.60;99.90
53422;DHT22;39319;52.944;5.928;2023-03-19T11:36:02;11.70;99.90
53422;DHT22;39319;52.944;5.928;2023-03-19T11:43:55;11.80;99.90
53422;DHT22;39319;52.944;5.928;2023-03-19T11:49:20;11.80;99.90
53422;DHT22;39319;52.944;5.928;2023-03-19T11:51:52;11.70;99.90
53422;DHT22;39319;52.944;5.928;2023-03-19T11:59:58;11.90;99.90
53422;DHT22;39319;52.944;5.928;2023-03-19T12:05:24;12.00;99.90
53422;DHT22;39319;52.944;5.928;2023-03-19T12:11:09;11.90;99.90
53422;DHT22;39319;52.944;5.928;2023-03-19T12:14:01;12.00;99.90
53422;DHT22;39319;52.944;5.928;2023-03-19T12:35:33;12.20;99.90
53422;DHT22;39319;52.944;5.928;2023-03-19T12:45:55;12.10;99.90
53422;DHT22;39319;52.944;5.928;2023-03-19T12:48:27;12.10;99.90
53422;DHT22;39319;52.944;5.928;2023-03-19T12:50:57;12.10;99.90
53422;DHT22;39319;52.944;5.928;2023-03-19T12:53:42;12.30;99.90
53422;DHT22;39319;52.944;5.928;2023-03-19T12:56:38;12.10;99.90
53422;DHT22;39319;52.944;5.928;2023-03-19T12:59:36;12.30;99.90
53422;DHT22;39319;52.944;5.928;2023-03-19T13:02:34;12.30;99.90
53422;DHT22;39319;52.944;5.928;2023-03-19T13:07:50;12.50;99.90
53422;DHT22;39319;52.944;5.928;2023-03-19T13:10:18;12.50;99.90
53422;DHT22;39319;52.944;5.928;2023-03-19T13:12:47;12.40;99.90
53422;DHT22;39319;52.944;5.928;2023-03-19T13:15:36;12.60;99.90
53422;DHT22;39319;52.944;5.928;2023-03-19T13:23:25;12.50;99.90
53422;DHT22;39319;52.944;5.928;2023-03-19T13:25:55;12.40;99.90
53422;DHT22;39319;52.944;5.928;2023-03-19T13:31:45;12.60;99.90
53422;DHT22;39319;52.944;5.928;2023-03-19T13:34:05;12.50;99.90
53422;DHT22;39319;52.944;5.928;2023-03-19T13:36:36;12.40;99.90
53422;DHT22;39319;52.944;5.928;2023-03-19T13:39:13;12.60;99.90
53422;DHT22;39319;52.944;5.928;2023-03-19T13:47:02;12.50;99.90
53422;DHT22;39319;52.944;5.928;2023-03-19T13:58:18;12.60;99.90
53422;DHT22;39319;52.944;5.928;2023-03-19T14:01:08;12.50;99.90
53422;DHT22;39319;52.944;5.928;2023-03-19T14:03:35;12.50;99.90
53422;DHT22;39319;52.944;5.928;2023-03-19T14:06:04;12.40;99.90
53422;DHT22;39319;52.944;5.928;2023-03-19T14:08:45;12.50;99.90
53422;DHT22;39319;52.944;5.928;2023-03-19T14:11:30;12.40;99.90
53422;DHT22;39319;52.944;5.928;2023-03-19T14:14:03;12.40;99.90
53422;DHT22;39319;52.944;5.928;2023-03-19T14:16:34;12.60;99.90
53422;DHT22;39319;52.944;5.928;2023-03-19T14:19:02;12.60;99.90
53422;DHT22;39319;52.944;5.928;2023-03-19T14:21:41;12.60;99.90
53422;DHT22;39319;52.944;5.928;2023-03-19T14:26:59;12.60;99.90
53422;DHT22;39319;52.944;5.928;2023-03-19T14:29:27;12.60;99.90
53422;DHT22;39319;52.944;5.928;2023-03-19T14:31:56;12.50;99.90
53422;DHT22;39319;52.944;5.928;2023-03-19T14:34:26;12.60;99.90
53422;DHT22;39319;52.944;5.928;2023-03-19T14:37:58;12.30;99.90
53422;DHT22;39319;52.944;5.928;2023-03-19T14:39:58;12.40;99.90
53422;DHT22;39319;52.944;5.928;2023-03-19T14:42:30;12.60;99.90
53422;DHT22;39319;52.944;5.928;2023-03-19T14:50:52;12.50;99.90
53422;DHT22;39319;52.944;5.928;2023-03-19T14:53:29;12.50;99.90
53422;DHT22;39319;52.944;5.928;2023-03-19T14:56:13;12.50;99.90
53422;DHT22;39319;52.944;5.928;2023-03-19T14:58:53;12.50;99.90
53422;DHT22;39319;52.944;5.928;2023-03-19T15:01:20;12.50;99.90
53422;DHT22;39319;52.944;5.928;2023-03-19T15:03:53;12.30;99.90
53422;DHT22;39319;52.944;5.928;2023-03-19T15:06:20;12.40;99.90
53422;DHT22;39319;52.944;5.928;2023-03-19T15:08:48;12.30;99.90
53422;DHT22;39319;52.944;5.928;2023-03-19T15:19:38;12.50;99.90
53422;DHT22;39319;52.944;5.928;2023-03-19T15:22:14;12.30;99.90
53422;DHT22;39319;52.944;5.928;2023-03-19T15:24:43;12.50;99.90
53422;DHT22;39319;52.944;5.928;2023-03-19T15:27:24;12.50;99.90
53422;DHT22;39319;52.944;5.928;2023-03-19T15:29:51;12.50;99.90
53422;DHT22;39319;52.944;5.928;2023-03-19T15:32:49;12.40;99.90
53422;DHT22;39319;52.944;5.928;2023-03-19T15:35:16;12.50;99.90
53422;DHT22;39319;52.944;5.928;2023-03-19T15:37:46;12.50;99.90
53422;DHT22;39319;52.944;5.928;2023-03-19T15:40:16;12.50;99.90
53422;DHT22;39319;52.944;5.928;2023-03-19T15:42:46;12.40;99.90
53422;DHT22;39319;52.944;5.928;2023-03-19T15:45:15;12.50;99.90
53422;DHT22;39319;52.944;5.928;2023-03-19T15:50:27;12.40;99.90
53422;DHT22;39319;52.944;5.928;2023-03-19T15:53:17;12.60;99.90
53422;DHT22;39319;52.944;5.928;2023-03-19T15:55:41;12.40;99.90
53422;DHT22;39319;52.944;5.928;2023-03-19T15:58:11;12.40;99.90
53422;DHT22;39319;52.944;5.928;2023-03-19T16:00:40;12.50;99.90
53422;DHT22;39319;52.944;5.928;2023-03-19T16:03:06;12.50;99.90
53422;DHT22;39319;52.944;5.928;2023-03-19T16:05:35;12.50;99.90
53422;DHT22;39319;52.944;5.928;2023-03-19T16:08:13;12.50;99.90
53422;DHT22;39319;52.944;5.928;2023-03-19T16:10:42;12.40;99.90
53422;DHT22;39319;52.944;5.928;2023-03-19T16:13:29;12.30;99.90
53422;DHT22;39319;52.944;5.928;2023-03-19T16:16:00;12.20;99.90
53422;DHT22;39319;52.944;5.928;2023-03-19T16:18:29;12.30;99.90
53422;DHT22;39319;52.944;5.928;2023-03-19T16:21:07;12.30;99.90
53422;DHT22;39319;52.944;5.928;2023-03-19T16:23:49;12.30;99.90
53422;DHT22;39319;52.944;5.928;2023-03-19T16:26:21;12.30;99.90
53422;DHT22;39319;52.944;5.928;2023-03-19T16:29:02;12.20;99.90
53422;DHT22;39319;52.944;5.928;2023-03-19T16:31:30;12.20;99.90
53422;DHT22;39319;52.944;5.928;2023-03-19T16:34:01;12.20;99.90
53422;DHT22;39319;52.944;5.928;2023-03-19T16:36:29;12.30;99.90
53422;DHT22;39319;52.944;5.928;2023-03-19T16:39:35;12.10;99.90
53422;DHT22;39319;52.944;5.928;2023-03-19T16:42:14;12.10;99.90
53422;DHT22;39319;52.944;5.928;2023-03-19T16:44:42;12.20;99.90
53422;DHT22;39319;52.944;5.928;2023-03-19T16:47:12;12.30;99.90
53422;DHT22;39319;52.944;5.928;2023-03-19T16:49:38;12.10;99.90
53422;DHT22;39319;52.944;5.928;2023-03-19T16:52:05;12.10;99.90
53422;DHT22;39319;52.944;5.928;2023-03-19T16:54:35;12.10;99.90
53422;DHT22;39319;52.944;5.928;2023-03-19T16:57:01;12.20;99.90
53422;DHT22;39319;52.944;5.928;2023-03-19T16:59:28;12.10;99.90
53422;DHT22;39319;52.944;5.928;2023-03-19T17:01:55;12.20;99.90
53422;DHT22;39319;52.944;5.928;2023-03-19T17:04:22;12.10;99.90
53422;DHT22;39319;52.944;5.928;2023-03-19T17:06:49;12.00;99.90
53422;DHT22;39319;52.944;5.928;2023-03-19T17:09:15;12.10;99.90
53422;DHT22;39319;52.944;5.928;2023-03-19T17:11:41;11.90;99.90
53422;DHT22;39319;52.944;5.928;2023-03-19T17:14:14;12.00;99.90
53422;DHT22;39319;52.944;5.928;2023-03-19T17:16:42;11.90;99.90
53422;DHT22;39319;52.944;5.928;2023-03-19T17:19:36;12.00;99.90
53422;DHT22;39319;52.944;5.928;2023-03-19T17:22:02;12.00;99.90
53422;DHT22;39319;52.944;5.928;2023-03-19T17:24:30;12.00;99.90
53422;DHT22;39319;52.944;5.928;2023-03-19T17:26:58;11.90;99.90
53422;DHT22;39319;52.944;5.928;2023-03-19T17:29:24;12.00;99.90
53422;DHT22;39319;52.944;5.928;2023-03-19T17:31:54;11.90;99.90
53422;DHT22;39319;52.944;5.928;2023-03-19T17:34:23;11.90;99.90
53422;DHT22;39319;52.944;5.928;2023-03-19T17:36:52;11.90;99.90
53422;DHT22;39319;52.944;5.928;2023-03-19T17:39:19;11.90;99.90
53422;DHT22;39319;52.944;5.928;2023-03-19T17:41:46;11.90;99.90
53422;DHT22;39319;52.944;5.928;2023-03-19T17:44:11;11.80;99.90
53422;DHT22;39319;52.944;5.928;2023-03-19T17:46:41;11.90;99.90
53422;DHT22;39319;52.944;5.928;2023-03-19T17:51:48;11.70;99.90